Nearby METAR Reports


Data Updates Approximately Every Four Hours

METAR is the international standard code format for hourly surface weather observations which is analogous to the SA coding currently used in the US. The acronym roughly translates from French as Aviation Routine Weather Report. SPECI is merely the code name given to METAR formatted products which are issued on a special non-routine basis as dictated by changing meteorological conditions. The SPECI acronym roughly translates as Aviation Selected Special Weather Report.

KSLH - Cheboygan, Michigan, USA
Distance from station: W 9mi, 14km
Updated: 08/25/2019 5:58am
Clear
Clear
 Wind from calm
Wind: Calm
Temperature: 43°F , 6°C
Dew Point: 43°F , 6°C
Humidity: 100%
Barometer: 30.26 inHg , 1024.7 hPa
Clouds: Clear
Visibility: 10 miles , 16 km
2019/08/25 09:58 KSLH 250958Z AUTO 00000KT 10SM CLR 06/06 A3026 RMK AO2 T00610056
KMCD - Mackinac Island, Michigan, USA
Distance from station: NW 19mi, 31km
Updated: 08/25/2019 5:56am
Clear
Clear
 Wind from SE
Wind: SE 7 mph , 11 km/h
Temperature: 59°F , 15°C
Dew Point: 54°F , 12°C
Humidity: 82%
Barometer: 30.27 inHg , 1025.1 hPa
Clouds: Clear
Visibility: 10 miles , 16 km
2019/08/25 09:56 KMCD 250956Z AUTO 14006KT 10SM CLR 15/12 A3027 RMK AO2 T01450118
 
KPLN - Pellston, Michigan, USA
Distance from station: WSW 24mi, 38km
Updated: 08/25/2019 5:54am
Clear
Clear
 Wind from calm
Wind: Calm
Temperature: 37°F , 3°C
Dew Point: 37°F , 3°C
Humidity: 100%
Barometer: 30.28 inHg , 1025.4 hPa
Clouds: Clear
Visibility: 10 miles , 16 km
2019/08/25 09:54 KPLN 250954Z AUTO 00000KT 10SM CLR 03/03 A3028 RMK AO2 SLP255 T00330033
KPZQ - Rogers City, Michigan, USA
Distance from station: SE 31mi, 50km
Updated: 08/25/2019 5:55am
Clear
Clear
 Wind from calm
Wind: Calm
Temperature: 46°F , 8°C
Dew Point: 45°F , 7°C
Humidity: 93%
Barometer: 30.30 inHg , 1026.1 hPa
Clouds: Clear
Visibility: 10 miles , 16 km
2019/08/25 09:55 KPZQ 250955Z AUTO 00000KT 10SM CLR 08/07 A3030 RMK AO2 T00790068
 
KMGN - Harbor Springs, Michigan, USA
Distance from station: WSW 32mi, 52km
Updated: 08/25/2019 5:58am
Clear
Clear
 Wind from E
Wind: E 3 mph , 6 km/h
Temperature: 50°F , 10°C
Dew Point: 48°F , 9°C
Humidity: 94%
Barometer: 30.27 inHg , 1025.1 hPa
Clouds: Clear
Visibility: 10 miles , 16 km
2019/08/25 09:58 KMGN 250958Z AUTO 09003KT 10SM CLR 10/09 A3027 RMK AO2 T01050094
KDRM - Drummond Is, Michigan, USA
Distance from station: NE 36mi, 59km
Updated: 08/25/2019 5:55am
Clear
Clear
 Wind from calm
Wind: Calm
Temperature: 50°F , 10°C
Dew Point: 50°F , 10°C
Humidity: 100%
Barometer: 30.29 inHg , 1025.7 hPa
Clouds: Clear
Visibility: 10 miles , 16 km
2019/08/25 09:55 KDRM 250955Z AUTO 00000KT 10SM CLR 10/10 A3029 RMK AO2 T01040103
 
KCIU - Chippewa Intl, Michigan, USA
Distance from station: N 41mi, 66km
Updated: 08/25/2019 5:56am
Clear
Clear
 Wind from SE
Wind: SE 5 mph , 7 km/h
Temperature: 48°F , 9°C
Wind Chill: 46°F , 8°C
Dew Point: 48°F , 9°C
Humidity: 100%
Barometer: 30.29 inHg , 1025.7 hPa
Clouds: Clear
Visibility: 8 miles , 13 km
2019/08/25 09:56 KCIU 250956Z AUTO 13004KT 8SM CLR 09/09 A3029 RMK AO2 SLP257 T00890089
KGLR - Gaylord, Michigan, USA
Distance from station: SSW 48mi, 77km
Updated: 08/25/2019 5:53am
Clear
Clear
 Wind from SSE
Wind: SSE 6 mph , 9 km/h
Temperature: 50°F , 10°C
Wind Chill: 48°F , 9°C
Dew Point: 48°F , 9°C
Humidity: 94%
Barometer: 30.28 inHg , 1025.4 hPa
Clouds: Clear
Visibility: 10 miles , 16 km
2019/08/25 09:53 KGLR 250953Z AUTO 15005KT 10SM CLR 10/09 A3028 RMK AO2 SLP253 T01000089 $
 
KCVX - Charlevoix, Michigan, USA
Distance from station: WSW 52mi, 83km
Updated: 08/25/2019 5:56am
Clear
Clear
 Wind from ESE
Wind: ESE 5 mph , 7 km/h
Temperature: 55°F , 13°C
Dew Point: 50°F , 10°C
Humidity: 82%
Barometer: 30.28 inHg , 1025.4 hPa
Clouds: Clear
Visibility: 10 miles , 16 km
2019/08/25 09:56 KCVX 250956Z AUTO 11004KT 10SM CLR 13/10 A3028 RMK AO2 T01300103
KANJ - Sault Ste Marie, Michigan, USA
Distance from station: N 56mi, 89km
Updated: 08/25/2019 5:55am
Clear
Clear
 Wind from ENE
Wind: ENE 3 mph , 6 km/h
Temperature: 52°F , 11°C
Dew Point: 50°F , 10°C
Humidity: 94%
Barometer: 30.28 inHg , 1025.4 hPa
Clouds: Clear
Visibility: 10 miles , 16 km
2019/08/25 09:55 KANJ 250955Z AUTO 06003KT 10SM CLR 11/10 A3028 RMK AO2 SLP252 T01110100
 
KAPN - Alpena, Michigan, USA
Distance from station: SE 56mi, 89km
Updated: 08/25/2019 5:54am
Clear
Clear
 Wind from calm
Wind: Calm
Temperature: 45°F , 7°C
Dew Point: 43°F , 6°C
Humidity: 93%
Barometer: 30.29 inHg , 1025.7 hPa
Clouds: Clear
Visibility: 10 miles , 16 km
2019/08/25 09:54 KAPN 250954Z AUTO 00000KT 10SM CLR 07/06 A3029 RMK AO2 SLP258 T00720061
CYAM - Sault Ste Marie, Ontario, Canada
Distance from station: N 56mi, 90km
Updated: 08/25/2019 6:00am

 
2019/08/25 10:00 CYAM 251000Z CCA 09002KT 25SM FEW280 08/08 A3028 RMK CI1 SLP259
 
KSJX - Beaver Island, Michigan, USA
Distance from station: W 60mi, 96km
Updated: 08/25/2019 5:55am
Clear
Clear
 Wind from SSE
Wind: SSE 3 mph , 6 km/h
Temperature: 50°F , 10°C
Dew Point: 48°F , 9°C
Humidity: 94%
Barometer: 30.25 inHg , 1024.4 hPa
Clouds: Clear
Visibility: 10 miles , 16 km
2019/08/25 09:55 KSJX 250955Z AUTO 15003KT 10SM CLR 10/09 A3025 RMK AO2 T00970092
KACB - Bellaire, Michigan, USA
Distance from station: SW 63mi, 102km
Updated: 08/25/2019 5:59am
Mist, Overcast
Mist, Overcast
 Wind from calm
Wind: Calm
Temperature: 46°F , 8°C
Dew Point: 46°F , 8°C
Humidity: 100%
Barometer: 30.26 inHg , 1024.7 hPa
Summary: Mist
Clouds: Overcast
Visibility: 3/4 mile , 1.2 km
Cloud details: Overcast 500 ft
2019/08/25 09:59 KACB 250959Z AUTO 00000KT 3/4SM BR VV005 08/08 A3026 RMK AO2 T00840078
 
CWNL - Great Duck Island, Ontario, Canada
Distance from station: E 66mi, 106km
Updated: 08/25/2019 5:00am

 Wind from ENE
Wind: ENE 5 mph , 7 km/h
Temperature: 57°F , 14°C
Dew Point: 52°F , 11°C
Humidity: 82%
2019/08/25 09:00 CWNL 250900Z AUTO 07004KT 14/11 RMK AO1 SLP256 T01380112 51004
KERY - Newberry, Michigan, USA
Distance from station: NW 69mi, 112km
Updated: 08/25/2019 5:55am
Clear
Clear
 Wind from calm
Wind: Calm
Temperature: 48°F , 9°C
Dew Point: 46°F , 8°C
Humidity: 94%
Barometer: 30.25 inHg , 1024.4 hPa
Clouds: Clear
Visibility: 10 miles , 16 km
2019/08/25 09:55 KERY 250955Z AUTO 00000KT 10SM CLR 09/08 A3025 RMK AO2 T00870075
 
KGOV - Grayling Af, Michigan, USA
Distance from station: SSW 70mi, 113km
Updated: 08/25/2019 5:58am
Clear
Clear
 Wind from calm
Wind: Calm
Temperature: 41°F , 5°C
Dew Point: 39°F , 4°C
Humidity: 93%
Barometer: 30.27 inHg , 1025.1 hPa
Clouds: Clear
Visibility: 10 miles , 16 km
2019/08/25 09:58 KGOV 250958Z AUTO 00000KT 10SM CLR 05/04 A3027 RMK AO2 SLP258 T00480044 $